createdAt,value
2023-02-12T00:01:51.502Z,62.30
2023-02-12T00:07:32.731Z,59.25
2023-02-12T00:13:03.488Z,56.47
2023-02-12T00:18:27.522Z,57.58
2023-02-12T00:23:53.504Z,50.78
2023-02-12T00:29:44.499Z,53.15
2023-02-12T00:35:09.518Z,52.55
2023-02-12T00:40:35.796Z,58.25
2023-02-12T00:46:06.655Z,57.13
2023-02-12T00:51:30.883Z,54.72
2023-02-12T00:56:55.526Z,51.47
2023-02-12T01:03:33.390Z,54.80
2023-02-12T01:08:34.521Z,53.03
2023-02-12T01:14:05.986Z,54.15
2023-02-12T01:19:34.668Z,57.85
2023-02-12T01:25:03.693Z,55.35
2023-02-12T01:30:30.526Z,47.90
2023-02-12T01:36:02.755Z,46.35
2023-02-12T01:41:33.876Z,43.90
2023-02-12T01:47:00.529Z,42.67
2023-02-12T01:52:34.331Z,40.47
2023-02-12T01:58:04.768Z,39.33
2023-02-12T02:03:29.679Z,40.90
2023-02-12T02:09:04.713Z,41.20
2023-02-12T02:14:43.061Z,42.25
2023-02-12T02:20:31.572Z,44.28
2023-02-12T02:26:28.666Z,43.38
2023-02-12T02:32:01.701Z,48.15
2023-02-12T02:37:32.619Z,48.05
2023-02-12T02:43:02.564Z,58.03
2023-02-12T02:48:38.560Z,58.00
2023-02-12T02:54:23.142Z,51.65
2023-02-12T02:59:57.287Z,60.65
2023-02-12T03:05:40.962Z,57.72
2023-02-12T03:11:16.234Z,64.15
2023-02-12T03:22:32.568Z,55.03
2023-02-12T03:28:01.618Z,61.45
2023-02-12T03:33:32.609Z,55.85
2023-02-12T03:39:05.630Z,48.77
2023-02-12T03:44:43.600Z,47.33
2023-02-12T03:50:18.876Z,46.13
2023-02-12T03:55:51.788Z,41.70
2023-02-12T04:01:16.707Z,40.15
2023-02-12T04:06:41.632Z,43.08
2023-02-12T04:12:23.624Z,40.45
2023-02-12T04:17:58.664Z,42.70
2023-02-12T04:23:30.628Z,38.05
2023-02-12T04:29:07.587Z,42.55
2023-02-12T04:34:39.676Z,44.20
2023-02-12T04:40:07.602Z,48.10
2023-02-12T04:45:39.653Z,47.00
2023-02-12T04:51:04.717Z,51.00
2023-02-12T04:56:29.629Z,60.40
2023-02-12T05:01:57.629Z,63.83
2023-02-12T05:07:28.722Z,75.15
2023-02-12T05:12:53.838Z,72.27
2023-02-12T05:18:20.644Z,95.40
2023-02-12T05:23:47.663Z,98.10
2023-02-12T05:29:12.660Z,82.43
2023-02-12T05:34:40.642Z,88.97
2023-02-12T05:40:05.805Z,73.70
2023-02-12T05:45:34.907Z,76.45
2023-02-12T05:51:02.667Z,71.95
2023-02-12T05:56:31.697Z,77.05
2023-02-12T06:01:59.724Z,80.82
2023-02-12T06:07:33.666Z,69.68
2023-02-12T06:13:03.677Z,73.30
2023-02-12T06:18:27.648Z,94.35
2023-02-12T06:23:56.677Z,114.50
2023-02-12T06:29:20.698Z,93.25
2023-02-12T06:34:45.659Z,156.88
2023-02-12T06:40:12.659Z,122.35
2023-02-12T06:45:37.652Z,102.18
2023-02-12T06:51:01.683Z,145.50
2023-02-12T06:56:30.712Z,119.80
2023-02-12T07:01:55.692Z,144.80
2023-02-12T07:07:28.872Z,245.30
2023-02-12T07:12:56.659Z,752.47
2023-02-12T07:18:20.667Z,707.63
2023-02-12T07:23:52.685Z,751.05
2023-02-12T07:29:20.681Z,531.53
2023-02-12T07:34:48.821Z,451.80
2023-02-12T07:40:14.737Z,894.95
2023-02-12T07:45:41.769Z,1072.25
2023-02-12T07:51:06.702Z,648.22
2023-02-12T07:56:37.720Z,800.65
2023-02-12T08:02:07.762Z,671.20
2023-02-12T08:07:38.737Z,469.10
2023-02-12T08:13:03.732Z,706.13
2023-02-12T08:18:30.920Z,679.15
2023-02-12T08:23:57.736Z,429.15
2023-02-12T08:29:25.700Z,679.38
2023-02-12T08:34:53.708Z,496.35
2023-02-12T08:40:19.977Z,311.35
2023-02-12T08:45:44.731Z,372.25
2023-02-12T08:51:11.727Z,114.95
2023-02-12T08:56:38.726Z,200.13
2023-02-12T09:02:06.796Z,371.58
2023-02-12T09:07:34.761Z,353.88
2023-02-12T09:12:59.713Z,95.93
2023-02-12T09:18:24.770Z,59.97
2023-02-12T09:23:52.783Z,52.58
2023-02-12T09:29:17.783Z,63.08
2023-02-12T09:34:41.748Z,60.17
2023-02-12T09:40:09.726Z,57.40
2023-02-12T09:45:36.755Z,55.85
2023-02-12T09:51:04.745Z,72.38
2023-02-12T09:56:33.767Z,83.68
2023-02-12T10:01:58.772Z,132.40
2023-02-12T10:07:56.752Z,173.48
2023-02-12T10:13:35.783Z,117.25
2023-02-12T10:19:29.756Z,218.18
2023-02-12T10:25:06.822Z,67.82
2023-02-12T10:30:39.839Z,102.30
2023-02-12T10:36:11.764Z,116.63
2023-02-12T10:41:47.779Z,65.18
2023-02-12T10:47:15.804Z,45.97
2023-02-12T10:52:50.775Z,166.27
2023-02-12T10:58:29.814Z,47.13
2023-02-12T11:04:03.793Z,53.72
2023-02-12T11:09:38.761Z,48.15
2023-02-12T11:15:08.804Z,64.65
2023-02-12T11:20:38.815Z,56.45
2023-02-12T11:26:11.900Z,55.63
2023-02-12T11:31:38.844Z,85.35
2023-02-12T11:37:07.831Z,47.38
2023-02-12T11:42:35.803Z,36.03
2023-02-12T11:47:59.891Z,36.42
2023-02-12T11:53:34.907Z,34.92
2023-02-12T11:59:03.125Z,31.10
2023-02-12T12:04:32.916Z,28.58
2023-02-12T12:10:04.824Z,27.20
2023-02-12T12:15:46.807Z,22.55
2023-02-12T12:21:16.857Z,22.95
2023-02-12T12:26:44.865Z,22.58
2023-02-12T12:32:16.012Z,22.35
2023-02-12T12:37:50.945Z,21.23
2023-02-12T12:43:29.810Z,17.80
2023-02-12T12:49:22.845Z,15.27
2023-02-12T12:55:02.821Z,13.73
2023-02-12T13:00:44.933Z,14.20
2023-02-12T13:06:30.055Z,12.63
2023-02-12T13:12:07.861Z,11.25
2023-02-12T13:17:42.861Z,12.98
2023-02-12T13:23:13.862Z,9.35
2023-02-12T13:28:47.872Z,10.87
2023-02-12T13:34:20.949Z,10.77
2023-02-12T13:39:50.894Z,10.55
2023-02-12T13:45:30.854Z,8.20
2023-02-12T13:51:07.896Z,8.40
2023-02-12T13:56:43.884Z,8.90
2023-02-12T14:02:10.896Z,9.48
2023-02-12T14:07:57.883Z,10.60
2023-02-12T14:13:27.851Z,10.55
2023-02-12T14:18:53.875Z,9.63
2023-02-12T14:24:58.862Z,8.45
2023-02-12T14:30:50.011Z,7.78
2023-02-12T14:36:27.904Z,7.57
2023-02-12T14:41:53.857Z,10.23
2023-02-12T14:47:40.910Z,8.25
2023-02-12T14:53:10.928Z,7.85
2023-02-12T14:58:39.940Z,8.52
2023-02-12T15:04:14.874Z,7.00
2023-02-12T15:09:45.915Z,7.22
2023-02-12T15:15:19.906Z,7.10
2023-02-12T15:20:53.931Z,6.35
2023-02-12T15:26:19.893Z,7.75
2023-02-12T15:31:45.043Z,6.57
2023-02-12T15:37:15.070Z,5.93
2023-02-12T15:42:41.926Z,7.35
2023-02-12T15:48:26.907Z,7.22
2023-02-12T15:53:54.916Z,6.63
2023-02-12T15:59:19.928Z,6.82
2023-02-12T16:04:48.928Z,6.28
2023-02-12T16:10:18.107Z,6.97
2023-02-12T16:15:45.953Z,9.23
2023-02-12T16:21:19.962Z,14.40
2023-02-12T16:26:47.959Z,24.33
2023-02-12T16:32:13.917Z,21.08
2023-02-12T16:37:52.953Z,16.48
2023-02-12T16:43:39.957Z,18.42
2023-02-12T16:49:06.950Z,16.42
2023-02-12T16:54:44.948Z,16.40
2023-02-12T17:00:15.001Z,14.75
2023-02-12T17:05:40.970Z,17.60
2023-02-12T17:11:08.264Z,20.75
2023-02-12T17:16:38.966Z,16.90
2023-02-12T17:22:04.979Z,14.63
2023-02-12T17:27:29.958Z,15.23
2023-02-12T17:32:59.993Z,15.65
2023-02-12T17:38:26.344Z,15.32
2023-02-12T17:43:50.982Z,16.45
2023-02-12T17:49:19.984Z,17.17
2023-02-12T17:54:45.965Z,14.30
2023-02-12T18:00:09.999Z,15.82
2023-02-12T18:05:38.005Z,14.98
2023-02-12T18:11:03.018Z,15.63
2023-02-12T18:16:29.219Z,14.48
2023-02-12T18:21:56.977Z,17.73
2023-02-12T18:27:23.023Z,16.60
2023-02-12T18:32:48.015Z,16.83
2023-02-12T18:38:16.025Z,18.23
2023-02-12T18:43:44.071Z,19.15
2023-02-12T18:49:10.046Z,21.13
2023-02-12T18:54:37.036Z,18.95
2023-02-12T19:00:02.054Z,18.27
2023-02-12T19:05:33.016Z,18.92
2023-02-12T19:11:02.056Z,17.00
2023-02-12T19:16:30.055Z,18.95
2023-02-12T19:21:56.018Z,19.15
2023-02-12T19:27:25.197Z,17.48
2023-02-12T19:32:50.052Z,17.77
2023-02-12T19:38:14.238Z,19.13
2023-02-12T19:43:42.035Z,19.42
2023-02-12T19:49:11.031Z,15.13
2023-02-12T19:54:36.043Z,15.23
2023-02-12T20:00:03.045Z,14.20
2023-02-12T20:05:28.025Z,13.80
2023-02-12T20:10:55.453Z,14.73
2023-02-12T20:16:25.254Z,14.15
2023-02-12T20:21:51.090Z,12.73
2023-02-12T20:27:18.054Z,12.43
2023-02-12T20:32:46.052Z,12.63
2023-02-12T20:43:31.082Z,13.57
2023-02-12T20:49:01.056Z,12.32
2023-02-12T20:54:27.077Z,11.23
2023-02-12T20:59:52.063Z,10.25
2023-02-12T21:05:21.113Z,10.80
2023-02-12T21:10:46.066Z,10.82
2023-02-12T21:16:20.177Z,10.85
2023-02-12T21:21:51.110Z,11.10
2023-02-12T21:27:16.239Z,9.30
2023-02-12T21:32:41.087Z,10.80
2023-02-12T21:38:08.048Z,9.43
2023-02-12T21:43:44.786Z,8.07
2023-02-12T21:49:10.071Z,7.13
2023-02-12T21:54:39.204Z,6.78
2023-02-12T22:00:03.100Z,5.50
2023-02-12T22:05:42.130Z,6.22
2023-02-12T22:11:17.055Z,6.40
2023-02-12T22:16:42.220Z,6.15
2023-02-12T22:22:07.092Z,5.55
2023-02-12T22:27:35.094Z,7.20
2023-02-12T22:33:00.337Z,5.55
2023-02-12T22:38:26.099Z,6.03
2023-02-12T22:43:55.100Z,5.97
2023-02-12T22:49:21.095Z,6.20
2023-02-12T22:54:46.096Z,7.75
2023-02-12T23:00:15.102Z,5.38
2023-02-12T23:06:15.096Z,8.57
2023-02-12T23:11:43.154Z,7.90
2023-02-12T23:17:15.104Z,7.60
2023-02-12T23:22:40.135Z,8.02
2023-02-12T23:28:04.188Z,8.32
2023-02-12T23:33:32.112Z,7.25
2023-02-12T23:38:57.153Z,7.55
2023-02-12T23:44:23.129Z,7.90
2023-02-12T23:49:50.179Z,8.32
2023-02-12T23:55:16.150Z,7.78
